createdAt,value
2023-05-17T00:01:39.587Z,21.20
2023-05-17T00:05:41.782Z,22.63
2023-05-17T00:09:43.958Z,23.83
2023-05-17T00:13:46.173Z,21.27
2023-05-17T00:17:48.410Z,25.60
2023-05-17T00:21:50.687Z,24.33
2023-05-17T00:25:52.885Z,22.80
2023-05-17T00:29:54.957Z,30.73
2023-05-17T00:33:57.236Z,30.23
2023-05-17T00:37:59.564Z,23.73
2023-05-17T00:42:01.867Z,26.52
2023-05-17T00:46:03.976Z,24.17
2023-05-17T00:50:07.158Z,29.52
2023-05-17T00:54:09.375Z,31.17
2023-05-17T00:58:15.233Z,28.75
2023-05-17T01:02:18.060Z,29.73
2023-05-17T01:06:20.704Z,32.45
2023-05-17T01:10:44.294Z,34.25
2023-05-17T01:14:52.652Z,37.30
2023-05-17T01:19:17.671Z,39.35
2023-05-17T01:23:39.256Z,31.48
2023-05-17T01:27:45.697Z,37.58
2023-05-17T01:31:49.488Z,35.03
2023-05-17T01:35:52.535Z,39.28
2023-05-17T01:39:55.844Z,37.22
2023-05-17T01:44:31.858Z,39.63
2023-05-17T01:48:39.968Z,36.78
2023-05-17T01:52:59.729Z,40.40
2023-05-17T01:57:06.184Z,37.20
2023-05-17T02:01:10.410Z,43.13
2023-05-17T02:05:12.767Z,43.13
2023-05-17T02:09:17.822Z,44.70
2023-05-17T02:13:19.581Z,48.47
2023-05-17T02:17:21.853Z,36.95
2023-05-17T02:21:24.180Z,37.03
2023-05-17T02:25:26.562Z,34.08
2023-05-17T02:29:29.241Z,41.47
2023-05-17T02:33:31.509Z,48.63
2023-05-17T02:37:33.800Z,49.92
2023-05-17T02:41:36.099Z,43.13
2023-05-17T02:45:38.225Z,45.65
2023-05-17T02:49:41.017Z,54.00
2023-05-17T02:53:43.254Z,47.45
2023-05-17T02:57:46.193Z,48.10
2023-05-17T03:01:50.204Z,42.42
2023-05-17T03:05:52.877Z,43.15
2023-05-17T03:09:54.980Z,45.40
2023-05-17T03:13:57.978Z,46.42
2023-05-17T03:18:02.986Z,45.38
2023-05-17T03:22:05.620Z,38.78
2023-05-17T03:26:09.136Z,39.25
2023-05-17T03:30:18.744Z,40.35
2023-05-17T03:34:21.986Z,49.97
2023-05-17T03:38:24.274Z,42.28
2023-05-17T03:42:27.269Z,45.97
2023-05-17T03:46:29.457Z,36.90
2023-05-17T03:50:32.758Z,37.50
2023-05-17T03:54:35.295Z,35.80
2023-05-17T03:58:37.911Z,32.00
2023-05-17T04:02:41.160Z,34.40
2023-05-17T04:06:43.824Z,34.75
2023-05-17T04:10:46.192Z,36.28
2023-05-17T04:14:48.471Z,37.28
2023-05-17T04:18:53.784Z,36.65
2023-05-17T04:22:56.115Z,35.97
2023-05-17T04:27:02.711Z,35.38
2023-05-17T04:31:08.815Z,33.47
2023-05-17T04:35:11.329Z,34.75
2023-05-17T04:39:14.508Z,38.20
2023-05-17T04:43:16.797Z,31.17
2023-05-17T04:47:19.040Z,32.58
2023-05-17T04:51:21.271Z,41.20
2023-05-17T04:55:23.702Z,35.97
2023-05-17T04:59:25.910Z,36.83
2023-05-17T05:03:28.113Z,32.85
2023-05-17T05:07:31.493Z,33.42
2023-05-17T05:11:33.844Z,41.67
2023-05-17T05:15:35.994Z,37.80
2023-05-17T05:19:39.690Z,40.72
2023-05-17T05:23:42.508Z,38.85
2023-05-17T05:27:46.229Z,40.90
2023-05-17T05:31:49.066Z,34.35
2023-05-17T05:35:51.672Z,37.38
2023-05-17T05:39:53.803Z,35.70
2023-05-17T05:43:56.119Z,28.10
2023-05-17T05:47:59.334Z,33.15
2023-05-17T05:52:02.955Z,28.13
2023-05-17T05:56:06.454Z,31.45
2023-05-17T06:00:09.793Z,24.23
2023-05-17T06:04:17.643Z,27.55
2023-05-17T06:08:19.760Z,23.35
2023-05-17T06:12:21.885Z,27.63
2023-05-17T06:16:23.911Z,22.75
2023-05-17T06:20:26.048Z,26.80
2023-05-17T06:24:28.185Z,21.25
2023-05-17T06:28:30.459Z,22.08
2023-05-17T06:32:32.659Z,23.58
2023-05-17T06:36:35.933Z,21.80
2023-05-17T06:40:39.574Z,23.13
2023-05-17T06:44:41.616Z,22.92
2023-05-17T06:48:43.971Z,24.27
2023-05-17T06:52:46.724Z,22.05
2023-05-17T06:56:48.825Z,17.77
2023-05-17T07:00:50.791Z,21.05
2023-05-17T07:04:53.073Z,23.25
2023-05-17T07:08:55.168Z,19.27
2023-05-17T07:12:57.212Z,17.30
2023-05-17T07:16:59.302Z,14.75
2023-05-17T07:21:04.249Z,23.45
2023-05-17T07:25:07.365Z,17.75
2023-05-17T07:29:09.472Z,18.83
2023-05-17T07:33:11.841Z,17.02
2023-05-17T07:37:13.911Z,16.90
2023-05-17T07:41:17.137Z,16.52
2023-05-17T07:45:19.727Z,19.30
2023-05-17T07:49:23.595Z,17.27
2023-05-17T07:53:25.952Z,14.27
2023-05-17T07:57:27.992Z,18.65
2023-05-17T08:01:30.068Z,15.02
2023-05-17T08:05:32.498Z,15.35
2023-05-17T08:09:34.816Z,13.13
2023-05-17T08:13:37.180Z,16.05
2023-05-17T08:17:39.307Z,17.10
2023-05-17T08:21:42.628Z,19.30
2023-05-17T08:25:44.674Z,17.05
2023-05-17T08:29:46.335Z,16.05
2023-05-17T08:33:48.471Z,13.25
2023-05-17T08:37:51.046Z,13.68
2023-05-17T08:41:53.743Z,13.40
2023-05-17T08:45:59.162Z,16.45
2023-05-17T08:50:02.143Z,15.77
2023-05-17T08:54:06.230Z,25.35
2023-05-17T08:58:09.178Z,16.15
2023-05-17T09:02:11.618Z,14.45
2023-05-17T09:06:14.842Z,19.10
2023-05-17T09:10:17.377Z,16.52
2023-05-17T09:14:19.578Z,17.20
2023-05-17T09:18:30.271Z,17.85
2023-05-17T09:22:32.813Z,15.43
2023-05-17T09:26:52.699Z,13.55
2023-05-17T09:30:54.813Z,12.20
2023-05-17T09:34:59.504Z,11.68
2023-05-17T09:39:05.861Z,14.98
2023-05-17T09:43:08.567Z,16.25
2023-05-17T09:47:10.642Z,12.95
2023-05-17T09:51:13.261Z,15.00
2023-05-17T09:55:15.874Z,14.93
2023-05-17T09:59:17.914Z,25.40
2023-05-17T10:03:21.522Z,15.10
2023-05-17T10:07:26.087Z,19.20
2023-05-17T10:11:34.213Z,23.08
2023-05-17T10:15:38.535Z,19.73
2023-05-17T10:19:41.549Z,21.98
2023-05-17T10:23:45.871Z,20.05
2023-05-17T10:27:50.798Z,23.40
2023-05-17T10:31:52.863Z,30.15
2023-05-17T10:35:56.429Z,26.85
2023-05-17T10:39:59.030Z,26.52
2023-05-17T10:44:04.611Z,31.08
2023-05-17T10:48:07.957Z,31.50
2023-05-17T10:52:18.393Z,35.13
2023-05-17T10:56:21.741Z,31.77
2023-05-17T11:00:27.912Z,29.50
2023-05-17T11:04:36.278Z,33.67
2023-05-17T11:09:05.704Z,31.58
2023-05-17T11:13:25.297Z,23.83
2023-05-17T11:17:34.082Z,35.80
2023-05-17T11:21:36.314Z,24.90
2023-05-17T11:25:40.553Z,34.08
2023-05-17T11:29:48.934Z,33.88
2023-05-17T11:33:54.143Z,39.47
2023-05-17T11:38:17.840Z,32.22
2023-05-17T11:42:26.017Z,33.17
2023-05-17T11:46:28.297Z,38.03
2023-05-17T11:50:30.765Z,38.63
2023-05-17T11:54:34.141Z,30.17
2023-05-17T11:58:36.900Z,29.50
2023-05-17T12:02:39.160Z,25.55
2023-05-17T12:06:42.463Z,43.13
2023-05-17T12:10:46.579Z,26.38
2023-05-17T12:14:48.983Z,33.38
2023-05-17T12:18:52.184Z,40.28
2023-05-17T12:22:55.943Z,33.03
2023-05-17T12:26:58.075Z,30.77
2023-05-17T12:31:03.948Z,33.80
2023-05-17T12:35:06.318Z,30.00
2023-05-17T12:39:11.182Z,31.17
2023-05-17T12:43:13.374Z,25.25
2023-05-17T12:47:15.667Z,25.17
2023-05-17T12:51:23.730Z,22.38
2023-05-17T12:55:26.376Z,22.48
2023-05-17T12:59:29.264Z,20.77
2023-05-17T13:03:31.775Z,27.92
2023-05-17T13:07:33.971Z,25.98
2023-05-17T13:11:40.827Z,32.97
2023-05-17T13:15:47.261Z,24.55
2023-05-17T13:19:49.695Z,24.30
2023-05-17T13:23:51.881Z,26.83
2023-05-17T13:27:55.499Z,30.27
2023-05-17T13:31:57.596Z,28.13
2023-05-17T13:35:59.782Z,38.38
2023-05-17T13:40:03.250Z,23.10
2023-05-17T13:44:05.703Z,27.20
2023-05-17T13:48:07.837Z,33.08
2023-05-17T13:52:10.176Z,30.75
2023-05-17T13:56:12.249Z,28.30
2023-05-17T14:00:14.764Z,24.77
2023-05-17T14:04:17.056Z,26.90
2023-05-17T14:08:20.267Z,35.47
2023-05-17T14:12:22.381Z,28.98
2023-05-17T14:16:24.120Z,22.63
2023-05-17T14:20:26.265Z,27.42
2023-05-17T14:24:28.325Z,30.52
2023-05-17T14:28:30.466Z,24.10
2023-05-17T14:32:32.547Z,25.50
2023-05-17T14:36:36.405Z,25.13
2023-05-17T14:40:38.472Z,25.83
2023-05-17T14:44:40.615Z,28.85
2023-05-17T14:48:42.733Z,32.70
2023-05-17T14:52:44.932Z,23.38
2023-05-17T14:56:47.241Z,28.67
2023-05-17T15:00:54.162Z,29.45
2023-05-17T15:04:58.432Z,22.27
2023-05-17T15:09:02.248Z,22.30
2023-05-17T15:13:04.512Z,36.42
2023-05-17T15:17:06.969Z,37.63
2023-05-17T15:21:10.523Z,43.80
2023-05-17T15:25:12.694Z,32.60
2023-05-17T15:29:14.804Z,40.28
2023-05-17T15:33:17.835Z,31.38
2023-05-17T15:37:20.157Z,36.70
2023-05-17T15:41:29.134Z,30.98
2023-05-17T15:45:33.051Z,27.08
2023-05-17T15:49:35.785Z,28.00
2023-05-17T15:53:38.651Z,32.97
2023-05-17T15:57:42.590Z,28.55
2023-05-17T16:01:46.412Z,44.67
2023-05-17T16:05:48.693Z,36.95
2023-05-17T16:09:50.878Z,33.70
2023-05-17T16:13:52.892Z,28.27
2023-05-17T16:17:55.091Z,33.60
2023-05-17T16:21:57.913Z,46.13
2023-05-17T16:26:00.116Z,26.55
2023-05-17T16:30:02.151Z,26.60
2023-05-17T16:34:04.345Z,30.95
2023-05-17T16:38:06.459Z,31.63
2023-05-17T16:42:08.481Z,31.67
2023-05-17T16:46:10.563Z,30.77
2023-05-17T16:50:13.553Z,30.85
2023-05-17T16:54:15.582Z,31.60
2023-05-17T16:58:17.751Z,34.85
2023-05-17T17:02:20.102Z,28.60
2023-05-17T17:06:22.416Z,34.33
2023-05-17T17:10:24.553Z,37.42
2023-05-17T17:14:26.578Z,28.40
2023-05-17T17:18:29.407Z,36.70
2023-05-17T17:22:32.206Z,31.17
2023-05-17T17:26:35.466Z,28.50
2023-05-17T17:30:37.706Z,34.45
2023-05-17T17:34:39.893Z,30.15
2023-05-17T17:38:41.927Z,43.80
2023-05-17T17:42:43.946Z,33.47
2023-05-17T17:46:46.195Z,36.30
2023-05-17T17:50:48.203Z,34.55
2023-05-17T17:54:50.381Z,29.38
2023-05-17T17:58:56.123Z,42.28
2023-05-17T18:02:58.274Z,41.47
2023-05-17T18:07:02.001Z,36.08
2023-05-17T18:11:04.269Z,38.70
2023-05-17T18:15:06.755Z,44.25
2023-05-17T18:19:08.836Z,36.85
2023-05-17T18:23:10.993Z,47.00
2023-05-17T18:27:14.204Z,43.05
2023-05-17T18:31:18.279Z,43.13
2023-05-17T18:35:20.598Z,36.70
2023-05-17T18:39:22.702Z,34.63
2023-05-17T18:43:24.764Z,36.78
2023-05-17T18:47:27.963Z,28.83
2023-05-17T18:51:31.508Z,31.88
2023-05-17T18:55:33.557Z,26.00
2023-05-17T18:59:35.912Z,31.73
2023-05-17T19:03:38.077Z,31.42
2023-05-17T19:07:40.164Z,28.98
2023-05-17T19:11:42.424Z,32.92
2023-05-17T19:15:44.414Z,32.92
2023-05-17T19:19:46.654Z,29.55
2023-05-17T19:23:49.005Z,30.73
2023-05-17T19:27:51.105Z,31.05
2023-05-17T19:31:53.218Z,27.27
2023-05-17T19:35:55.993Z,28.13
2023-05-17T19:39:59.014Z,30.45
2023-05-17T19:44:01.028Z,28.50
2023-05-17T19:48:05.245Z,32.58
2023-05-17T19:52:07.519Z,26.83
2023-05-17T19:56:10.255Z,31.65
2023-05-17T20:00:12.589Z,24.67
2023-05-17T20:04:15.209Z,22.75
2023-05-17T20:08:17.266Z,35.78
2023-05-17T20:12:19.538Z,29.02
2023-05-17T20:16:21.830Z,32.03
2023-05-17T20:20:25.067Z,33.45
2023-05-17T20:24:29.055Z,33.35
2023-05-17T20:28:31.231Z,27.25
2023-05-17T20:32:33.279Z,30.35
2023-05-17T20:36:35.473Z,29.00
2023-05-17T20:40:37.651Z,31.48
2023-05-17T20:44:40.294Z,24.75
2023-05-17T20:48:43.078Z,27.60
2023-05-17T20:52:45.533Z,26.52
2023-05-17T20:56:47.713Z,25.23
2023-05-17T21:00:49.931Z,21.92
2023-05-17T21:04:55.084Z,32.72
2023-05-17T21:09:02.322Z,26.67
2023-05-17T21:13:04.537Z,36.05
2023-05-17T21:17:06.666Z,21.58
2023-05-17T21:21:08.921Z,35.95
2023-05-17T21:29:25.432Z,29.20
2023-05-17T21:33:32.334Z,27.90
2023-05-17T21:37:34.624Z,27.05
2023-05-17T21:41:36.724Z,30.70
2023-05-17T21:45:41.243Z,27.90
2023-05-17T21:49:43.302Z,29.25
2023-05-17T21:53:45.511Z,30.05
2023-05-17T21:57:47.884Z,25.63
2023-05-17T22:01:50.031Z,28.13
2023-05-17T22:05:52.565Z,26.95
2023-05-17T22:09:55.202Z,34.28
2023-05-17T22:13:58.089Z,21.55
2023-05-17T22:18:03.268Z,22.55
2023-05-17T22:22:05.479Z,34.40
2023-05-17T22:26:08.102Z,30.90
2023-05-17T22:30:10.485Z,24.23
2023-05-17T22:34:12.585Z,33.50
2023-05-17T22:38:15.889Z,21.40
2023-05-17T22:42:18.004Z,26.17
2023-05-17T22:46:20.135Z,26.88
2023-05-17T22:50:24.530Z,27.85
2023-05-17T22:54:26.813Z,25.27
2023-05-17T22:58:28.912Z,20.33
2023-05-17T23:02:30.929Z,24.77
2023-05-17T23:06:34.404Z,19.55
2023-05-17T23:10:37.811Z,18.30
2023-05-17T23:14:40.039Z,24.35
2023-05-17T23:18:42.317Z,22.58
2023-05-17T23:22:44.442Z,12.82
2023-05-17T23:26:47.559Z,29.15
2023-05-17T23:30:51.561Z,18.10
2023-05-17T23:34:58.287Z,22.42
2023-05-17T23:39:00.534Z,21.73
2023-05-17T23:43:03.760Z,18.05
2023-05-17T23:47:05.885Z,21.05
2023-05-17T23:51:07.878Z,18.77
2023-05-17T23:55:10.228Z,17.48
2023-05-17T23:59:12.538Z,16.10
